Time,TemperatureF,DewpointF,PressureIn,WindDirection,WindDirectionDegrees,WindSpeedMPH,WindSpeedGustMPH,Humidity,HourlyPrecipIn,Conditions,Clouds,dailyrainin,SoftwareType,DateUTC
2013-02-11 00:00:00,65.2,60.6,30.17,ESE,119,0.0,0.0,85,0.00,,,0.00,WeatherTracker,2013-02-11 05:00:00,
2013-02-11 00:05:00,65.1,60.5,30.17,East,94,0.0,0.0,85,0.00,,,0.00,WeatherTracker,2013-02-11 05:05:00,
2013-02-11 00:10:00,65.0,60.7,30.17,East,90,1.0,0.0,86,0.00,,,0.00,WeatherTracker,2013-02-11 05:10:00,
2013-02-11 00:15:00,64.9,60.6,30.17,ESE,104,0.0,0.0,86,0.00,,,0.00,WeatherTracker,2013-02-11 05:15:00,
2013-02-11 00:20:00,64.9,60.6,30.17,ESE,111,0.0,0.0,86,0.00,,,0.00,WeatherTracker,2013-02-11 05:20:00,
2013-02-11 00:25:00,64.8,60.5,30.17,ESE,113,0.0,0.0,86,0.00,,,0.00,WeatherTracker,2013-02-11 05:25:00,
2013-02-11 00:30:00,64.7,60.4,30.17,ESE,115,0.0,0.0,86,0.00,,,0.00,WeatherTracker,2013-02-11 05:30:00,
2013-02-11 00:35:00,64.7,60.7,30.16,ESE,102,0.0,0.0,87,0.00,,,0.00,WeatherTracker,2013-02-11 05:35:00,
2013-02-11 00:40:00,64.7,60.7,30.16,ESE,123,0.0,0.0,87,0.00,,,0.00,WeatherTracker,2013-02-11 05:40:00,
2013-02-11 00:45:00,64.7,60.7,30.16,ESE,121,1.0,0.0,87,0.00,,,0.00,WeatherTracker,2013-02-11 05:45:00,
2013-02-11 00:50:00,64.6,60.6,30.16,ESE,104,1.0,0.0,87,0.00,,,0.00,WeatherTracker,2013-02-11 05:50:00,
2013-02-11 00:55:00,64.6,60.6,30.16,ESE,117,1.0,0.0,87,0.00,,,0.00,WeatherTracker,2013-02-11 05:55:00,
2013-02-11 01:00:00,64.5,60.5,30.16,East,98,0.0,0.0,87,0.00,,,0.00,WeatherTracker,2013-02-11 06:00:00,
2013-02-11 01:05:00,64.5,60.5,30.16,ESE,112,1.0,0.0,87,0.00,,,0.00,WeatherTracker,2013-02-11 06:05:00,
2013-02-11 01:10:00,64.5,60.5,30.16,ESE,111,0.0,0.0,87,0.00,,,0.00,WeatherTracker,2013-02-11 06:10:00,
2013-02-11 01:15:00,64.4,60.4,30.16,NE,55,0.0,0.0,87,0.00,,,0.00,WeatherTracker,2013-02-11 06:15:00,
2013-02-11 01:21:00,64.4,60.4,30.16,ESE,103,0.0,0.0,87,0.00,,,0.00,WeatherTracker,2013-02-11 06:21:00,
2013-02-11 01:26:00,64.3,60.3,30.16,East,98,0.0,0.0,87,0.00,,,0.00,WeatherTracker,2013-02-11 06:26:00,
2013-02-11 01:31:00,64.3,60.7,30.16,SE,130,2.0,0.0,88,0.00,,,0.00,WeatherTracker,2013-02-11 06:31:00,
2013-02-11 01:36:00,64.3,60.7,30.17,ESE,117,0.0,0.0,88,0.00,,,0.00,WeatherTracker,2013-02-11 06:36:00,
2013-02-11 01:41:00,64.2,60.6,30.16,ESE,115,0.0,0.0,88,0.00,,,0.00,WeatherTracker,2013-02-11 06:41:00,
2013-02-11 01:46:00,64.1,60.5,30.16,ESE,115,1.0,0.0,88,0.00,,,0.00,WeatherTracker,2013-02-11 06:46:00,
2013-02-11 01:51:00,64.1,60.5,30.16,ESE,119,0.0,0.0,88,0.00,,,0.00,WeatherTracker,2013-02-11 06:51:00,
2013-02-11 01:56:00,64.0,60.4,30.16,ESE,115,1.0,0.0,88,0.00,,,0.00,WeatherTracker,2013-02-11 06:56:00,
2013-02-11 02:01:00,63.9,60.3,30.16,ESE,109,3.0,0.0,88,0.00,,,0.00,WeatherTracker,2013-02-11 07:01:00,
2013-02-11 02:06:00,63.8,60.5,30.16,ESE,111,1.0,0.0,89,0.00,,,0.00,WeatherTracker,2013-02-11 07:06:00,
2013-02-11 02:11:00,63.6,60.3,30.16,ESE,102,0.0,0.0,89,0.00,,,0.00,WeatherTracker,2013-02-11 07:11:00,
2013-02-11 02:16:00,63.5,60.2,30.16,ESE,120,3.0,0.0,89,0.00,,,0.00,WeatherTracker,2013-02-11 07:16:00,
2013-02-11 02:21:00,63.4,60.1,30.16,East,99,1.0,0.0,89,0.00,,,0.00,WeatherTracker,2013-02-11 07:21:00,
2013-02-11 02:26:00,63.3,60.0,30.16,ESE,109,0.0,0.0,89,0.00,,,0.00,WeatherTracker,2013-02-11 07:26:00,
2013-02-11 02:31:00,63.2,59.9,30.15,ESE,121,0.0,0.0,89,0.00,,,0.00,WeatherTracker,2013-02-11 07:31:00,
2013-02-11 02:36:00,63.0,59.7,30.15,ESE,120,3.0,0.0,89,0.00,,,0.00,WeatherTracker,2013-02-11 07:36:00,
2013-02-11 02:41:00,63.0,60.0,30.15,ESE,119,0.0,0.0,90,0.00,,,0.00,WeatherTracker,2013-02-11 07:41:00,
2013-02-11 02:46:00,62.9,59.9,30.14,ESE,121,1.0,0.0,90,0.00,,,0.00,WeatherTracker,2013-02-11 07:46:00,
2013-02-11 02:51:00,62.8,59.8,30.14,ESE,118,0.0,0.0,90,0.00,,,0.00,WeatherTracker,2013-02-11 07:51:00,
2013-02-11 02:56:00,62.8,59.8,30.14,SE,126,1.0,0.0,90,0.00,,,0.00,WeatherTracker,2013-02-11 07:56:00,
2013-02-11 03:01:00,62.7,60.0,30.14,SE,132,0.0,0.0,91,0.00,,,0.00,WeatherTracker,2013-02-11 08:01:00,
2013-02-11 03:06:00,62.7,59.7,30.14,ESE,106,2.0,0.0,90,0.00,,,0.00,WeatherTracker,2013-02-11 08:06:00,
2013-02-11 03:11:00,62.6,59.6,30.14,ESE,108,2.0,0.0,90,0.00,,,0.00,WeatherTracker,2013-02-11 08:11:00,
2013-02-11 03:16:00,62.6,59.9,30.14,ESE,119,1.0,0.0,91,0.00,,,0.00,WeatherTracker,2013-02-11 08:16:00,
2013-02-11 03:21:00,62.5,59.8,30.14,ESE,103,2.0,0.0,91,0.00,,,0.00,WeatherTracker,2013-02-11 08:21:00,
2013-02-11 03:26:00,62.5,59.8,30.14,ESE,119,2.0,0.0,91,0.00,,,0.00,WeatherTracker,2013-02-11 08:26:00,
2013-02-11 03:31:00,62.4,59.7,30.14,East,101,3.0,0.0,91,0.00,,,0.00,WeatherTracker,2013-02-11 08:31:00,
2013-02-11 03:37:00,62.3,59.6,30.14,ESE,112,4.0,0.0,91,0.00,,,0.00,WeatherTracker,2013-02-11 08:37:00,
2013-02-11 03:42:00,62.3,59.6,30.13,ESE,119,0.0,0.0,91,0.00,,,0.00,WeatherTracker,2013-02-11 08:42:00,
2013-02-11 03:47:00,62.3,59.9,30.13,ESE,112,0.0,0.0,92,0.00,,,0.00,WeatherTracker,2013-02-11 08:47:00,
2013-02-11 03:52:00,62.2,59.8,30.13,ESE,115,0.0,0.0,92,0.00,,,0.00,WeatherTracker,2013-02-11 08:52:00,
2013-02-11 03:57:00,62.2,59.8,30.13,ESE,114,5.0,0.0,92,0.00,,,0.00,WeatherTracker,2013-02-11 08:57:00,
2013-02-11 04:02:00,62.1,59.7,30.13,East,89,5.0,0.0,92,0.00,,,0.00,WeatherTracker,2013-02-11 09:02:00,
2013-02-11 04:07:00,62.1,59.7,30.12,ESE,107,1.0,0.0,92,0.00,,,0.00,WeatherTracker,2013-02-11 09:07:00,
2013-02-11 04:12:00,62.1,59.7,30.12,South,171,0.0,0.0,92,0.00,,,0.00,WeatherTracker,2013-02-11 09:12:00,
2013-02-11 04:17:00,62.2,59.8,30.12,ESE,116,1.0,0.0,92,0.00,,,0.00,WeatherTracker,2013-02-11 09:17:00,
2013-02-11 04:22:00,62.2,59.8,30.12,ESE,119,2.0,0.0,92,0.00,,,0.00,WeatherTracker,2013-02-11 09:22:00,
2013-02-11 04:27:00,62.2,59.8,30.12,ESE,122,2.0,0.0,92,0.00,,,0.00,WeatherTracker,2013-02-11 09:27:00,
2013-02-11 04:32:00,62.2,59.8,30.12,SE,135,0.0,0.0,92,0.00,,,0.00,WeatherTracker,2013-02-11 09:32:00,
2013-02-11 04:37:00,62.2,59.8,30.13,SE,130,2.0,0.0,92,0.00,,,0.00,WeatherTracker,2013-02-11 09:37:00,
2013-02-11 04:42:00,62.2,59.8,30.13,ESE,120,5.0,0.0,92,0.00,,,0.00,WeatherTracker,2013-02-11 09:42:00,
2013-02-11 04:47:00,62.3,59.9,30.12,ESE,109,0.0,0.0,92,0.00,,,0.00,WeatherTracker,2013-02-11 09:47:00,
2013-02-11 04:52:00,62.2,59.8,30.13,ESE,119,0.0,0.0,92,0.00,,,0.00,WeatherTracker,2013-02-11 09:52:00,
2013-02-11 04:57:00,62.2,59.8,30.13,ESE,106,0.0,0.0,92,0.00,,,0.00,WeatherTracker,2013-02-11 09:57:00,
2013-02-11 05:02:00,62.2,59.8,30.13,SSE,153,0.0,0.0,92,0.00,,,0.00,WeatherTracker,2013-02-11 10:02:00,
2013-02-11 05:07:00,62.1,59.7,30.13,SSE,151,0.0,0.0,92,0.00,,,0.00,WeatherTracker,2013-02-11 10:07:00,
2013-02-11 05:12:00,62.2,59.8,30.13,SSE,157,0.0,0.0,92,0.00,,,0.00,WeatherTracker,2013-02-11 10:12:00,
2013-02-11 05:18:00,62.2,59.8,30.13,SE,132,0.0,0.0,92,0.00,,,0.00,WeatherTracker,2013-02-11 10:18:00,
2013-02-11 05:23:00,62.2,59.8,30.13,ESE,119,0.0,0.0,92,0.00,,,0.00,WeatherTracker,2013-02-11 10:23:00,
2013-02-11 05:28:00,62.2,59.8,30.13,ESE,117,0.0,0.0,92,0.00,,,0.00,WeatherTracker,2013-02-11 10:28:00,
2013-02-11 05:33:00,62.2,59.8,30.13,ESE,120,0.0,0.0,92,0.00,,,0.00,WeatherTracker,2013-02-11 10:33:00,
2013-02-11 05:38:00,62.2,59.8,30.14,East,99,0.0,0.0,92,0.00,,,0.00,WeatherTracker,2013-02-11 10:38:00,
2013-02-11 05:43:00,62.1,59.7,30.14,SE,126,0.0,0.0,92,0.00,,,0.00,WeatherTracker,2013-02-11 10:43:00,
2013-02-11 05:48:00,62.2,60.1,30.14,ESE,103,0.0,0.0,93,0.00,,,0.00,WeatherTracker,2013-02-11 10:48:00,
2013-02-11 05:53:00,62.2,60.1,30.14,ESE,118,0.0,0.0,93,0.00,,,0.00,WeatherTracker,2013-02-11 10:53:00,
2013-02-11 05:58:00,62.3,60.2,30.14,East,97,5.0,0.0,93,0.00,,,0.00,WeatherTracker,2013-02-11 10:58:00,
2013-02-11 06:03:00,62.4,60.3,30.14,SE,142,0.0,0.0,93,0.00,,,0.00,WeatherTracker,2013-02-11 11:03:00,
2013-02-11 06:08:00,62.5,60.4,30.15,SE,142,0.0,0.0,93,0.00,,,0.00,WeatherTracker,2013-02-11 11:08:00,
2013-02-11 06:13:00,62.6,60.5,30.15,ESE,111,0.0,0.0,93,0.00,,,0.00,WeatherTracker,2013-02-11 11:13:00,
2013-02-11 06:18:00,62.6,60.2,30.15,SE,132,0.0,0.0,92,0.00,,,0.00,WeatherTracker,2013-02-11 11:18:00,
2013-02-11 06:23:00,62.7,60.3,30.15,East,101,1.0,0.0,92,0.00,,,0.00,WeatherTracker,2013-02-11 11:23:00,
2013-02-11 06:28:00,62.6,60.2,30.16,East,92,0.0,0.0,92,0.00,,,0.00,WeatherTracker,2013-02-11 11:28:00,
2013-02-11 06:33:00,62.5,60.1,30.16,East,90,1.0,0.0,92,0.00,,,0.00,WeatherTracker,2013-02-11 11:33:00,
2013-02-11 06:38:00,62.4,60.0,30.16,ESE,114,0.0,0.0,92,0.00,,,0.00,WeatherTracker,2013-02-11 11:38:00,
2013-02-11 06:43:00,62.2,59.8,30.16,ESE,109,0.0,0.0,92,0.00,,,0.00,WeatherTracker,2013-02-11 11:43:00,
2013-02-11 06:48:00,62.1,59.7,30.16,ESE,109,0.0,0.0,92,0.00,,,0.00,WeatherTracker,2013-02-11 11:48:00,
2013-02-11 06:53:00,61.9,59.5,30.16,ESE,108,0.0,0.0,92,0.00,,,0.00,WeatherTracker,2013-02-11 11:53:00,
2013-02-11 06:58:00,61.8,59.4,30.16,ESE,102,0.0,0.0,92,0.00,,,0.00,WeatherTracker,2013-02-11 11:58:00,
2013-02-11 07:03:00,61.6,59.6,30.17,East,92,0.0,0.0,93,0.00,,,0.00,WeatherTracker,2013-02-11 12:03:00,
2013-02-11 07:08:00,61.5,59.5,30.17,NE,55,0.0,0.0,93,0.00,,,0.00,WeatherTracker,2013-02-11 12:08:00,
2013-02-11 07:13:00,61.4,59.4,30.17,ENE,61,0.0,0.0,93,0.00,,,0.00,WeatherTracker,2013-02-11 12:13:00,
2013-02-11 07:18:00,61.3,59.3,30.17,ENE,78,0.0,0.0,93,0.00,,,0.00,WeatherTracker,2013-02-11 12:18:00,
2013-02-11 07:23:00,61.2,59.2,30.17,ENE,78,0.0,0.0,93,0.00,,,0.00,WeatherTracker,2013-02-11 12:23:00,
2013-02-11 07:28:00,61.1,59.1,30.17,ESE,110,0.0,0.0,93,0.00,,,0.00,WeatherTracker,2013-02-11 12:28:00,
2013-02-11 07:33:00,61.1,59.4,30.17,East,79,0.0,0.0,94,0.00,,,0.00,WeatherTracker,2013-02-11 12:33:00,
2013-02-11 07:38:00,61.1,59.4,30.17,East,81,1.0,0.0,94,0.00,,,0.00,WeatherTracker,2013-02-11 12:38:00,
2013-02-11 07:44:00,61.1,59.4,30.17,East,82,0.0,0.0,94,0.00,,,0.00,WeatherTracker,2013-02-11 12:44:00,
2013-02-11 07:49:00,61.2,59.5,30.17,East,88,1.0,0.0,94,0.00,,,0.00,WeatherTracker,2013-02-11 12:49:00,
2013-02-11 07:54:00,61.3,59.6,30.18,East,88,0.0,0.0,94,0.00,,,0.00,WeatherTracker,2013-02-11 12:54:00,
2013-02-11 07:59:00,61.6,59.9,30.18,ESE,108,0.0,0.0,94,0.00,,,0.00,WeatherTracker,2013-02-11 12:59:00,
2013-02-11 08:04:00,61.8,60.1,30.18,East,100,1.0,0.0,94,0.00,,,0.00,WeatherTracker,2013-02-11 13:04:00,
2013-02-11 08:09:00,62.1,60.4,30.18,ENE,62,2.0,0.0,94,0.00,,,0.00,WeatherTracker,2013-02-11 13:09:00,
2013-02-11 08:14:00,62.5,60.7,30.18,East,81,1.0,0.0,94,0.00,,,0.00,WeatherTracker,2013-02-11 13:14:00,
2013-02-11 08:19:00,62.9,61.1,30.18,ESE,105,1.0,0.0,94,0.00,,,0.00,WeatherTracker,2013-02-11 13:19:00,
2013-02-11 08:24:00,63.4,61.3,30.18,ESE,119,2.0,0.0,93,0.00,,,0.00,WeatherTracker,2013-02-11 13:24:00,
2013-02-11 08:29:00,64.0,61.9,30.18,SE,126,1.0,0.0,93,0.00,,,0.00,WeatherTracker,2013-02-11 13:29:00,
2013-02-11 08:34:00,64.5,62.1,30.18,East,84,0.0,0.0,92,0.00,,,0.00,WeatherTracker,2013-02-11 13:34:00,
2013-02-11 08:39:00,65.0,62.3,30.18,ESE,112,5.0,0.0,91,0.00,,,0.00,WeatherTracker,2013-02-11 13:39:00,
2013-02-11 08:44:00,65.5,62.5,30.18,ESE,117,5.0,0.0,90,0.00,,,0.00,WeatherTracker,2013-02-11 13:44:00,
2013-02-11 08:49:00,66.2,62.9,30.18,South,175,2.0,0.0,89,0.00,,,0.00,WeatherTracker,2013-02-11 13:49:00,
2013-02-11 08:54:00,66.9,63.2,30.18,ESE,117,5.0,0.0,88,0.00,,,0.00,WeatherTracker,2013-02-11 13:54:00,
2013-02-11 08:59:00,67.6,63.6,30.18,ESE,107,2.0,0.0,87,0.00,,,0.00,WeatherTracker,2013-02-11 13:59:00,
2013-02-11 09:04:00,68.1,63.7,30.18,South,170,0.0,0.0,86,0.00,,,0.00,WeatherTracker,2013-02-11 14:04:00,
2013-02-11 09:09:00,68.7,64.0,30.18,SSE,158,4.0,0.0,85,0.00,,,0.00,WeatherTracker,2013-02-11 14:09:00,
2013-02-11 09:14:00,69.3,64.2,30.18,SSE,167,1.0,0.0,84,0.00,,,0.00,WeatherTracker,2013-02-11 14:14:00,
2013-02-11 09:19:00,69.8,64.7,30.19,SSE,167,2.0,0.0,84,0.00,,,0.00,WeatherTracker,2013-02-11 14:19:00,
2013-02-11 09:24:00,70.4,64.6,30.19,SSE,155,6.0,0.0,82,0.00,,,0.00,WeatherTracker,2013-02-11 14:24:00,
2013-02-11 09:29:00,70.9,64.8,30.19,SE,131,2.0,0.0,81,0.00,,,0.00,WeatherTracker,2013-02-11 14:29:00,
2013-02-11 09:34:00,71.3,64.8,30.19,South,175,4.0,0.0,80,0.00,,,0.00,WeatherTracker,2013-02-11 14:34:00,
2013-02-11 09:39:00,71.6,65.1,30.19,South,174,8.0,0.0,80,0.00,,,0.00,WeatherTracker,2013-02-11 14:39:00,
2013-02-11 09:44:00,72.0,65.1,30.19,SSE,158,2.0,0.0,79,0.00,,,0.00,WeatherTracker,2013-02-11 14:44:00,
2013-02-11 09:49:00,72.5,65.6,30.19,South,171,0.0,0.0,79,0.00,,,0.00,WeatherTracker,2013-02-11 14:49:00,
2013-02-11 09:54:00,73.1,65.1,30.19,SSE,162,4.0,0.0,76,0.00,,,0.00,WeatherTracker,2013-02-11 14:54:00,
2013-02-11 10:00:00,73.3,65.3,30.19,SSE,153,2.0,0.0,76,0.00,,,0.00,WeatherTracker,2013-02-11 15:00:00,
2013-02-11 10:05:00,73.6,65.6,30.19,ESE,118,2.0,0.0,76,0.00,,,0.00,WeatherTracker,2013-02-11 15:05:00,
2013-02-11 10:10:00,74.0,65.2,30.19,SE,128,0.0,0.0,74,0.00,,,0.00,WeatherTracker,2013-02-11 15:10:00,
2013-02-11 10:15:00,74.3,65.8,30.19,South,184,2.0,0.0,75,0.00,,,0.00,WeatherTracker,2013-02-11 15:15:00,
2013-02-11 10:20:00,74.9,65.2,30.19,South,174,4.0,0.0,72,0.00,,,0.00,WeatherTracker,2013-02-11 15:20:00,
2013-02-11 10:25:00,75.3,66.0,30.19,South,181,0.0,0.0,73,0.00,,,0.00,WeatherTracker,2013-02-11 15:25:00,
2013-02-11 10:30:00,75.5,65.8,30.19,SSW,192,2.0,0.0,72,0.00,,,0.00,WeatherTracker,2013-02-11 15:30:00,
2013-02-11 10:35:00,75.8,65.7,30.19,SSW,205,7.0,0.0,71,0.00,,,0.00,WeatherTracker,2013-02-11 15:35:00,
2013-02-11 10:40:00,76.2,65.7,30.19,South,169,5.0,0.0,70,0.00,,,0.00,WeatherTracker,2013-02-11 15:40:00,
2013-02-11 10:45:00,76.4,65.9,30.19,South,187,8.0,0.0,70,0.00,,,0.00,WeatherTracker,2013-02-11 15:45:00,
2013-02-11 10:50:00,76.8,66.3,30.18,SSE,160,3.0,0.0,70,0.00,,,0.00,WeatherTracker,2013-02-11 15:50:00,
2013-02-11 10:55:00,77.3,66.3,30.19,SE,137,8.0,0.0,69,0.00,,,0.00,WeatherTracker,2013-02-11 15:55:00,
2013-02-11 11:00:00,77.6,66.2,30.18,SE,130,5.0,0.0,68,0.00,,,0.00,WeatherTracker,2013-02-11 16:00:00,
2013-02-11 11:05:00,77.6,66.2,30.18,ESE,108,5.0,0.0,68,0.00,,,0.00,WeatherTracker,2013-02-11 16:05:00,
2013-02-11 11:10:00,77.9,66.0,30.18,SSE,163,6.0,0.0,67,0.00,,,0.00,WeatherTracker,2013-02-11 16:10:00,
2013-02-11 11:15:00,78.2,66.3,30.18,SSE,159,8.0,0.0,67,0.00,,,0.00,WeatherTracker,2013-02-11 16:15:00,
2013-02-11 11:20:00,78.6,66.3,30.18,SSE,163,6.0,0.0,66,0.00,,,0.00,WeatherTracker,2013-02-11 16:20:00,
2013-02-11 11:25:00,78.4,66.1,30.18,ESE,115,2.0,0.0,66,0.00,,,0.00,WeatherTracker,2013-02-11 16:25:00,
2013-02-11 11:30:00,78.6,66.3,30.18,SE,127,2.0,0.0,66,0.00,,,0.00,WeatherTracker,2013-02-11 16:30:00,
2013-02-11 11:35:00,78.6,66.3,30.17,SE,134,1.0,0.0,66,0.00,,,0.00,WeatherTracker,2013-02-11 16:35:00,
2013-02-11 11:40:00,79.0,66.6,30.17,South,188,5.0,0.0,66,0.00,,,0.00,WeatherTracker,2013-02-11 16:40:00,
2013-02-11 11:45:00,79.3,66.9,30.17,ESE,110,1.0,0.0,66,0.00,,,0.00,WeatherTracker,2013-02-11 16:45:00,
2013-02-11 11:50:00,79.8,66.5,30.17,SW,216,2.0,0.0,64,0.00,,,0.00,WeatherTracker,2013-02-11 16:50:00,
2013-02-11 11:56:00,80.3,66.5,30.17,South,183,3.0,0.0,63,0.00,,,0.00,WeatherTracker,2013-02-11 16:56:00,
2013-02-11 12:01:00,80.7,67.4,30.17,SSE,147,5.0,0.0,64,0.00,,,0.00,WeatherTracker,2013-02-11 17:01:00,
2013-02-11 12:06:00,81.1,66.8,30.16,SSE,167,9.0,0.0,62,0.00,,,0.00,WeatherTracker,2013-02-11 17:06:00,
2013-02-11 12:11:00,81.0,66.7,30.16,SSE,165,7.0,0.0,62,0.00,,,0.00,WeatherTracker,2013-02-11 17:11:00,
2013-02-11 12:16:00,81.1,67.3,30.16,SSE,159,9.0,0.0,63,0.00,,,0.00,WeatherTracker,2013-02-11 17:16:00,
2013-02-11 12:21:00,81.3,67.0,30.16,SSW,206,3.0,0.0,62,0.00,,,0.00,WeatherTracker,2013-02-11 17:21:00,
2013-02-11 12:26:00,81.7,66.9,30.16,SSW,203,5.0,0.0,61,0.00,,,0.00,WeatherTracker,2013-02-11 17:26:00,
2013-02-11 12:31:00,81.9,67.1,30.15,SSE,154,4.0,0.0,61,0.00,,,0.00,WeatherTracker,2013-02-11 17:31:00,
2013-02-11 12:36:00,81.8,67.5,30.15,South,173,6.0,0.0,62,0.00,,,0.00,WeatherTracker,2013-02-11 17:36:00,
2013-02-11 12:41:00,81.6,67.3,30.15,South,180,6.0,0.0,62,0.00,,,0.00,WeatherTracker,2013-02-11 17:41:00,
2013-02-11 12:46:00,81.9,67.6,30.15,South,185,1.0,0.0,62,0.00,,,0.00,WeatherTracker,2013-02-11 17:46:00,
2013-02-11 12:51:00,82.7,68.3,30.15,SE,142,9.0,0.0,62,0.00,,,0.00,WeatherTracker,2013-02-11 17:51:00,
2013-02-11 12:56:00,82.4,67.6,30.15,South,178,5.0,0.0,61,0.00,,,0.00,WeatherTracker,2013-02-11 17:56:00,
2013-02-11 13:01:00,82.2,67.9,30.14,SSE,167,1.0,0.0,62,0.00,,,0.00,WeatherTracker,2013-02-11 18:01:00,
2013-02-11 13:06:00,82.4,67.6,30.14,South,178,8.0,0.0,61,0.00,,,0.00,WeatherTracker,2013-02-11 18:06:00,
2013-02-11 13:11:00,82.1,67.3,30.14,ESE,105,2.0,0.0,61,0.00,,,0.00,WeatherTracker,2013-02-11 18:11:00,
2013-02-11 13:16:00,82.4,67.6,30.14,SSE,161,5.0,0.0,61,0.00,,,0.00,WeatherTracker,2013-02-11 18:16:00,
2013-02-11 13:21:00,82.7,67.4,30.13,SE,142,5.0,0.0,60,0.00,,,0.00,WeatherTracker,2013-02-11 18:21:00,
2013-02-11 13:26:00,82.7,67.4,30.13,WSW,242,4.0,0.0,60,0.00,,,0.00,WeatherTracker,2013-02-11 18:26:00,
2013-02-11 13:31:00,82.7,66.9,30.13,SSW,212,1.0,0.0,59,0.00,,,0.00,WeatherTracker,2013-02-11 18:31:00,
2013-02-11 13:36:00,82.2,67.4,30.12,SW,234,4.0,0.0,61,0.00,,,0.00,WeatherTracker,2013-02-11 18:36:00,
2013-02-11 13:41:00,82.4,67.6,30.12,SSW,213,1.0,0.0,61,0.00,,,0.00,WeatherTracker,2013-02-11 18:41:00,
2013-02-11 13:46:00,82.1,67.3,30.12,SSE,150,8.0,0.0,61,0.00,,,0.00,WeatherTracker,2013-02-11 18:46:00,
2013-02-11 13:51:00,81.6,67.8,30.12,South,178,3.0,0.0,63,0.00,,,0.00,WeatherTracker,2013-02-11 18:51:00,
2013-02-11 13:56:00,81.3,67.5,30.12,SSE,165,8.0,0.0,63,0.00,,,0.00,WeatherTracker,2013-02-11 18:56:00,
2013-02-11 14:01:00,81.4,67.6,30.12,SSW,192,7.0,0.0,63,0.00,,,0.00,WeatherTracker,2013-02-11 19:01:00,
2013-02-11 14:07:00,81.6,67.8,30.12,SSE,167,1.0,0.0,63,0.00,,,0.00,WeatherTracker,2013-02-11 19:07:00,
2013-02-11 14:12:00,81.3,67.9,30.11,SW,227,2.0,0.0,64,0.00,,,0.00,WeatherTracker,2013-02-11 19:12:00,
2013-02-11 14:17:00,81.6,67.8,30.11,SE,139,5.0,0.0,63,0.00,,,0.00,WeatherTracker,2013-02-11 19:17:00,
2013-02-11 14:22:00,81.6,67.3,30.11,South,169,5.0,0.0,62,0.00,,,0.00,WeatherTracker,2013-02-11 19:22:00,
2013-02-11 14:27:00,81.0,67.2,30.11,WSW,237,1.0,0.0,63,0.00,,,0.00,WeatherTracker,2013-02-11 19:27:00,
2013-02-11 14:32:00,80.8,67.5,30.11,SW,225,1.0,0.0,64,0.00,,,0.00,WeatherTracker,2013-02-11 19:32:00,
2013-02-11 14:37:00,80.8,67.5,30.11,East,98,5.0,0.0,64,0.00,,,0.00,WeatherTracker,2013-02-11 19:37:00,
2013-02-11 14:42:00,80.7,67.4,30.10,ESE,115,6.0,0.0,64,0.00,,,0.00,WeatherTracker,2013-02-11 19:42:00,
2013-02-11 14:47:00,80.7,67.4,30.10,South,183,1.0,0.0,64,0.00,,,0.00,WeatherTracker,2013-02-11 19:47:00,
2013-02-11 14:52:00,80.6,67.3,30.10,SSE,161,2.0,0.0,64,0.00,,,0.00,WeatherTracker,2013-02-11 19:52:00,
2013-02-11 14:57:00,80.6,67.7,30.10,SSW,213,5.0,0.0,65,0.00,,,0.00,WeatherTracker,2013-02-11 19:57:00,
2013-02-11 15:02:00,80.7,68.3,30.10,SSE,164,10.0,0.0,66,0.00,,,0.00,WeatherTracker,2013-02-11 20:02:00,
2013-02-11 15:07:00,80.3,67.9,30.10,SW,236,10.0,0.0,66,0.00,,,0.00,WeatherTracker,2013-02-11 20:07:00,
2013-02-11 15:12:00,79.8,68.3,30.10,SSE,151,6.0,0.0,68,0.00,,,0.00,WeatherTracker,2013-02-11 20:12:00,
2013-02-11 15:17:00,79.6,68.1,30.10,South,187,4.0,0.0,68,0.00,,,0.00,WeatherTracker,2013-02-11 20:17:00,
2013-02-11 15:22:00,79.3,68.2,30.10,South,175,0.0,0.0,69,0.00,,,0.00,WeatherTracker,2013-02-11 20:22:00,
2013-02-11 15:27:00,79.2,68.1,30.09,SSE,159,4.0,0.0,69,0.00,,,0.00,WeatherTracker,2013-02-11 20:27:00,
2013-02-11 15:32:00,79.1,68.5,30.09,South,171,5.0,0.0,70,0.00,,,0.00,WeatherTracker,2013-02-11 20:32:00,
2013-02-11 15:37:00,78.9,68.3,30.09,ESE,111,5.0,0.0,70,0.00,,,0.00,WeatherTracker,2013-02-11 20:37:00,
2013-02-11 15:42:00,78.9,68.3,30.09,SSE,161,8.0,0.0,70,0.00,,,0.00,WeatherTracker,2013-02-11 20:42:00,
2013-02-11 15:47:00,78.4,68.2,30.09,SSE,148,7.0,0.0,71,0.00,,,0.00,WeatherTracker,2013-02-11 20:47:00,
2013-02-11 15:52:00,78.1,68.3,30.09,SSE,168,7.0,0.0,72,0.00,,,0.00,WeatherTracker,2013-02-11 20:52:00,
2013-02-11 15:57:00,77.8,68.0,30.09,SSW,212,7.0,0.0,72,0.00,,,0.00,WeatherTracker,2013-02-11 20:57:00,
2013-02-11 16:02:00,77.7,67.9,30.09,SE,139,5.0,0.0,72,0.00,,,0.00,WeatherTracker,2013-02-11 21:02:00,
2013-02-11 16:07:00,77.6,67.8,30.09,South,180,7.0,0.0,72,0.00,,,0.00,WeatherTracker,2013-02-11 21:07:00,
2013-02-11 16:12:00,77.4,68.0,30.09,South,186,3.0,0.0,73,0.00,,,0.00,WeatherTracker,2013-02-11 21:12:00,
2013-02-11 16:17:00,77.4,68.0,30.09,SW,220,3.0,0.0,73,0.00,,,0.00,WeatherTracker,2013-02-11 21:17:00,
2013-02-11 16:22:00,77.4,68.0,30.09,SSE,166,8.0,0.0,73,0.00,,,0.00,WeatherTracker,2013-02-11 21:22:00,
2013-02-11 16:27:00,77.2,67.9,30.09,SW,225,3.0,0.0,73,0.00,,,0.00,WeatherTracker,2013-02-11 21:27:00,
2013-02-11 16:33:00,77.0,68.1,30.09,SSE,153,4.0,0.0,74,0.00,,,0.00,WeatherTracker,2013-02-11 21:33:00,
2013-02-11 16:38:00,76.7,67.8,30.09,South,181,0.0,0.0,74,0.00,,,0.00,WeatherTracker,2013-02-11 21:38:00,
2013-02-11 16:43:00,76.6,67.7,30.09,SSW,210,2.0,0.0,74,0.00,,,0.00,WeatherTracker,2013-02-11 21:43:00,
2013-02-11 16:48:00,76.4,67.9,30.09,SSW,207,3.0,0.0,75,0.00,,,0.00,WeatherTracker,2013-02-11 21:48:00,
2013-02-11 16:53:00,76.1,67.6,30.09,SE,138,6.0,0.0,75,0.00,,,0.00,WeatherTracker,2013-02-11 21:53:00,
2013-02-11 16:58:00,75.9,67.8,30.09,SW,215,0.0,0.0,76,0.00,,,0.00,WeatherTracker,2013-02-11 21:58:00,
2013-02-11 17:03:00,75.7,67.6,30.08,SSW,210,6.0,0.0,76,0.00,,,0.00,WeatherTracker,2013-02-11 22:03:00,
2013-02-11 17:08:00,75.5,67.4,30.08,South,171,8.0,0.0,76,0.00,,,0.00,WeatherTracker,2013-02-11 22:08:00,
2013-02-11 17:13:00,75.3,67.6,30.08,South,178,7.0,0.0,77,0.00,,,0.00,WeatherTracker,2013-02-11 22:13:00,
2013-02-11 17:18:00,75.1,67.4,30.08,South,182,0.0,0.0,77,0.00,,,0.00,WeatherTracker,2013-02-11 22:18:00,
2013-02-11 17:23:00,75.0,67.3,30.08,SSW,193,5.0,0.0,77,0.00,,,0.00,WeatherTracker,2013-02-11 22:23:00,
2013-02-11 17:36:00,74.6,67.3,30.08,SSW,210,0.0,0.0,78,0.00,,,0.00,WeatherTracker,2013-02-11 22:36:00,
2013-02-11 17:41:00,74.3,67.0,30.08,SE,141,2.0,0.0,78,0.00,,,0.00,WeatherTracker,2013-02-11 22:41:00,
2013-02-11 17:46:00,74.1,66.8,30.09,South,173,4.0,0.0,78,0.00,,,0.00,WeatherTracker,2013-02-11 22:46:00,
2013-02-11 17:51:00,73.8,66.9,30.09,South,178,4.0,0.0,79,0.00,,,0.00,WeatherTracker,2013-02-11 22:51:00,
2013-02-11 17:56:00,73.6,67.0,30.08,SSE,152,0.0,0.0,80,0.00,,,0.00,WeatherTracker,2013-02-11 22:56:00,
2013-02-11 18:01:00,73.4,66.8,30.09,SSW,206,1.0,0.0,80,0.00,,,0.00,WeatherTracker,2013-02-11 23:01:00,
2013-02-11 18:06:00,73.3,66.7,30.09,South,180,0.0,0.0,80,0.00,,,0.00,WeatherTracker,2013-02-11 23:06:00,
2013-02-11 18:11:00,73.1,66.9,30.09,SSE,159,3.0,0.0,81,0.00,,,0.00,WeatherTracker,2013-02-11 23:11:00,
2013-02-11 18:16:00,72.9,66.7,30.09,SSE,165,1.0,0.0,81,0.00,,,0.00,WeatherTracker,2013-02-11 23:16:00,
2013-02-11 18:21:00,72.6,66.8,30.09,South,169,0.0,0.0,82,0.00,,,0.00,WeatherTracker,2013-02-11 23:21:00,
2013-02-11 18:26:00,72.4,66.6,30.09,South,183,0.0,0.0,82,0.00,,,0.00,WeatherTracker,2013-02-11 23:26:00,
2013-02-11 18:31:00,72.3,66.8,30.09,SW,220,0.0,0.0,83,0.00,,,0.00,WeatherTracker,2013-02-11 23:31:00,
2013-02-11 18:36:00,72.1,66.6,30.09,SSW,202,0.0,0.0,83,0.00,,,0.00,WeatherTracker,2013-02-11 23:36:00,
2013-02-11 18:42:00,71.9,66.4,30.09,South,185,0.0,0.0,83,0.00,,,0.00,WeatherTracker,2013-02-11 23:42:00,
2013-02-11 18:46:00,71.8,66.7,30.09,South,181,1.0,0.0,84,0.00,,,0.00,WeatherTracker,2013-02-11 23:46:00,
2013-02-11 18:52:00,71.6,66.5,30.09,SSW,200,1.0,0.0,84,0.00,,,0.00,WeatherTracker,2013-02-11 23:52:00,
2013-02-11 18:57:00,71.5,66.7,30.09,South,179,0.0,0.0,85,0.00,,,0.00,WeatherTracker,2013-02-11 23:57:00,
2013-02-11 19:02:00,71.4,66.6,30.09,South,183,0.0,0.0,85,0.00,,,0.00,WeatherTracker,2013-02-12 00:02:00,
2013-02-11 19:07:00,71.3,66.5,30.09,SSW,198,0.0,0.0,85,0.00,,,0.00,WeatherTracker,2013-02-12 00:07:00,
2013-02-11 19:12:00,71.1,66.7,30.09,South,185,0.0,0.0,86,0.00,,,0.00,WeatherTracker,2013-02-12 00:12:00,
2013-02-11 19:17:00,71.0,66.6,30.09,SSE,165,0.0,0.0,86,0.00,,,0.00,WeatherTracker,2013-02-12 00:17:00,
2013-02-11 19:22:00,70.8,66.4,30.09,South,186,1.0,0.0,86,0.00,,,0.00,WeatherTracker,2013-02-12 00:22:00,
2013-02-11 19:27:00,70.7,66.3,30.09,South,183,0.0,0.0,86,0.00,,,0.00,WeatherTracker,2013-02-12 00:27:00,
2013-02-11 19:32:00,70.6,66.5,30.09,South,191,0.0,0.0,87,0.00,,,0.00,WeatherTracker,2013-02-12 00:32:00,
2013-02-11 19:37:00,70.6,66.5,30.09,South,184,0.0,0.0,87,0.00,,,0.00,WeatherTracker,2013-02-12 00:37:00,
2013-02-11 19:42:00,70.6,66.5,30.09,SSW,194,0.0,0.0,87,0.00,,,0.00,WeatherTracker,2013-02-12 00:42:00,
2013-02-11 19:47:00,70.5,66.4,30.09,SSW,193,0.0,0.0,87,0.00,,,0.00,WeatherTracker,2013-02-12 00:47:00,
2013-02-11 19:52:00,70.4,66.3,30.09,South,182,0.0,0.0,87,0.00,,,0.00,WeatherTracker,2013-02-12 00:52:00,
2013-02-11 19:57:00,70.4,66.7,30.09,South,181,0.0,0.0,88,0.00,,,0.00,WeatherTracker,2013-02-12 00:57:00,
2013-02-11 20:02:00,70.3,66.6,30.09,South,182,4.0,0.0,88,0.00,,,0.00,WeatherTracker,2013-02-12 01:02:00,
2013-02-11 20:07:00,70.2,66.5,30.09,South,173,1.0,0.0,88,0.00,,,0.00,WeatherTracker,2013-02-12 01:07:00,
2013-02-11 20:12:00,70.2,66.5,30.10,SSW,211,0.0,0.0,88,0.00,,,0.00,WeatherTracker,2013-02-12 01:12:00,
2013-02-11 20:17:00,70.2,66.5,30.10,South,170,0.0,0.0,88,0.00,,,0.00,WeatherTracker,2013-02-12 01:17:00,
2013-02-11 20:22:00,70.1,66.4,30.10,South,170,0.0,0.0,88,0.00,,,0.00,WeatherTracker,2013-02-12 01:22:00,
2013-02-11 20:27:00,70.1,66.4,30.10,South,190,0.0,0.0,88,0.00,,,0.00,WeatherTracker,2013-02-12 01:27:00,
2013-02-11 20:32:00,70.0,66.3,30.10,South,186,0.0,0.0,88,0.00,,,0.00,WeatherTracker,2013-02-12 01:32:00,
2013-02-11 20:37:00,69.9,66.2,30.10,South,186,0.0,0.0,88,0.00,,,0.00,WeatherTracker,2013-02-12 01:37:00,
2013-02-11 20:42:00,69.9,66.2,30.10,South,171,0.0,0.0,88,0.00,,,0.00,WeatherTracker,2013-02-12 01:42:00,
2013-02-11 20:48:00,69.9,66.2,30.10,South,170,0.0,0.0,88,0.00,,,0.00,WeatherTracker,2013-02-12 01:48:00,
2013-02-11 20:53:00,69.9,66.2,30.10,South,170,0.0,0.0,88,0.00,,,0.00,WeatherTracker,2013-02-12 01:53:00,
2013-02-11 20:58:00,69.9,66.2,30.10,South,170,0.0,0.0,88,0.00,,,0.00,WeatherTracker,2013-02-12 01:58:00,
2013-02-11 21:03:00,69.8,66.1,30.10,SSE,161,0.0,0.0,88,0.00,,,0.00,WeatherTracker,2013-02-12 02:03:00,
2013-02-11 21:08:00,69.8,66.1,30.10,SSE,161,0.0,0.0,88,0.00,,,0.00,WeatherTracker,2013-02-12 02:08:00,
2013-02-11 21:13:00,69.7,66.0,30.10,South,174,0.0,0.0,88,0.00,,,0.00,WeatherTracker,2013-02-12 02:13:00,
2013-02-11 21:18:00,69.6,65.9,30.11,South,188,0.0,0.0,88,0.00,,,0.00,WeatherTracker,2013-02-12 02:18:00,
2013-02-11 21:23:00,69.6,66.2,30.11,WSW,257,0.0,0.0,89,0.00,,,0.00,WeatherTracker,2013-02-12 02:23:00,
2013-02-11 21:28:00,69.5,65.8,30.11,South,169,0.0,0.0,88,0.00,,,0.00,WeatherTracker,2013-02-12 02:28:00,
2013-02-11 21:33:00,69.4,65.7,30.11,South,169,0.0,0.0,88,0.00,,,0.00,WeatherTracker,2013-02-12 02:33:00,
2013-02-11 21:38:00,69.2,65.8,30.11,South,171,0.0,0.0,89,0.00,,,0.00,WeatherTracker,2013-02-12 02:38:00,
2013-02-11 21:43:00,69.1,65.7,30.11,South,171,0.0,0.0,89,0.00,,,0.00,WeatherTracker,2013-02-12 02:43:00,
2013-02-11 21:48:00,69.0,65.6,30.11,South,171,0.0,0.0,89,0.00,,,0.00,WeatherTracker,2013-02-12 02:48:00,
2013-02-11 21:53:00,68.9,65.5,30.11,South,171,0.0,0.0,89,0.00,,,0.00,WeatherTracker,2013-02-12 02:53:00,
2013-02-11 21:58:00,68.8,65.7,30.11,South,171,0.0,0.0,90,0.00,,,0.00,WeatherTracker,2013-02-12 02:58:00,
2013-02-11 22:03:00,68.6,65.5,30.11,South,171,0.0,0.0,90,0.00,,,0.00,WeatherTracker,2013-02-12 03:03:00,
2013-02-11 22:08:00,68.4,65.3,30.11,South,171,0.0,0.0,90,0.00,,,0.00,WeatherTracker,2013-02-12 03:08:00,
2013-02-11 22:13:00,68.3,65.6,30.11,South,171,0.0,0.0,91,0.00,,,0.00,WeatherTracker,2013-02-12 03:13:00,
2013-02-11 22:18:00,68.4,65.7,30.11,South,171,0.0,0.0,91,0.00,,,0.00,WeatherTracker,2013-02-12 03:18:00,
2013-02-11 22:23:00,68.4,65.7,30.11,South,171,0.0,0.0,91,0.00,,,0.00,WeatherTracker,2013-02-12 03:23:00,
2013-02-11 22:28:00,68.3,65.6,30.11,South,171,0.0,0.0,91,0.00,,,0.00,WeatherTracker,2013-02-12 03:28:00,
2013-02-11 22:33:00,68.4,65.7,30.11,South,176,0.0,0.0,91,0.00,,,0.00,WeatherTracker,2013-02-12 03:33:00,
2013-02-11 22:38:00,68.5,65.8,30.11,South,171,0.0,0.0,91,0.00,,,0.00,WeatherTracker,2013-02-12 03:38:00,
2013-02-11 22:43:00,68.5,65.8,30.11,South,182,1.0,0.0,91,0.00,,,0.00,WeatherTracker,2013-02-12 03:43:00,
2013-02-11 22:48:00,68.6,65.9,30.11,South,180,0.0,0.0,91,0.00,,,0.00,WeatherTracker,2013-02-12 03:48:00,
2013-02-11 22:53:00,68.8,66.1,30.11,SSE,154,0.0,0.0,91,0.00,,,0.00,WeatherTracker,2013-02-12 03:53:00,
2013-02-11 22:58:00,68.9,66.2,30.10,South,173,1.0,0.0,91,0.00,,,0.00,WeatherTracker,2013-02-12 03:58:00,
2013-02-11 23:03:00,69.0,66.3,30.11,South,186,8.0,0.0,91,0.00,,,0.00,WeatherTracker,2013-02-12 04:03:00,
2013-02-11 23:08:00,69.0,66.3,30.11,South,187,4.0,0.0,91,0.00,,,0.00,WeatherTracker,2013-02-12 04:08:00,
2013-02-11 23:14:00,69.1,66.4,30.10,SSE,153,0.0,0.0,91,0.00,,,0.00,WeatherTracker,2013-02-12 04:14:00,
2013-02-11 23:19:00,69.2,66.5,30.10,South,173,0.0,0.0,91,0.00,,,0.00,WeatherTracker,2013-02-12 04:19:00,
2013-02-11 23:24:00,69.3,66.2,30.10,SSE,165,1.0,0.0,90,0.00,,,0.00,WeatherTracker,2013-02-12 04:24:00,
2013-02-11 23:29:00,69.5,66.4,30.11,South,179,0.0,0.0,90,0.00,,,0.00,WeatherTracker,2013-02-12 04:29:00,
2013-02-11 23:34:00,69.5,66.4,30.10,SSE,166,0.0,0.0,90,0.00,,,0.00,WeatherTracker,2013-02-12 04:34:00,
2013-02-11 23:39:00,69.5,66.4,30.10,South,171,4.0,0.0,90,0.00,,,0.00,WeatherTracker,2013-02-12 04:39:00,
2013-02-11 23:44:00,69.6,66.5,30.10,South,178,0.0,0.0,90,0.00,,,0.00,WeatherTracker,2013-02-12 04:44:00,
2013-02-11 23:49:00,69.6,66.2,30.10,South,169,0.0,0.0,89,0.00,,,0.00,WeatherTracker,2013-02-12 04:49:00,
2013-02-11 23:54:00,69.6,66.2,30.10,SSW,193,0.0,0.0,89,0.00,,,0.00,WeatherTracker,2013-02-12 04:54:00,
2013-02-11 23:59:00,69.7,66.3,30.10,SSE,167,2.0,0.0,89,0.00,,,0.00,WeatherTracker,2013-02-12 04:59:00,